createdAt,value
2018-12-31T09:51:44.926Z,99.90
2018-12-31T09:54:13.815Z,1.00
2018-12-31T09:56:42.706Z,99.90
2018-12-31T09:59:11.597Z,3.70
2018-12-31T10:01:40.489Z,99.90
2018-12-31T10:04:09.388Z,79.10
2018-12-31T10:06:38.270Z,82.60
2018-12-31T10:09:07.261Z,15.10
2018-12-31T10:11:36.255Z,7.10
2018-12-31T10:14:05.102Z,8.20
2018-12-31T10:16:33.984Z,1.00
2018-12-31T10:19:02.870Z,1.00
2018-12-31T10:21:31.707Z,1.90
2018-12-31T10:24:00.697Z,51.60
2018-12-31T10:26:29.645Z,77.50
2018-12-31T10:28:58.484Z,1.00
2018-12-31T10:31:27.528Z,1.00
2018-12-31T10:33:56.942Z,1.00
2018-12-31T10:36:25.893Z,1.00
2018-12-31T10:38:55.053Z,1.00
2018-12-31T10:41:24.245Z,1.00
2018-12-31T10:43:53.405Z,1.00
2018-12-31T10:46:22.345Z,1.00
2018-12-31T10:48:51.419Z,1.00
2018-12-31T10:51:20.296Z,1.00
2018-12-31T10:53:49.251Z,1.00
2018-12-31T10:56:18.132Z,1.00
2018-12-31T10:58:47.019Z,1.00
2018-12-31T11:01:15.855Z,1.00
2018-12-31T11:03:44.700Z,1.00
2018-12-31T11:06:13.842Z,1.00
2018-12-31T11:08:42.680Z,1.00
2018-12-31T11:11:11.524Z,1.00
2018-12-31T11:13:40.468Z,1.00
2018-12-31T11:16:09.460Z,1.00
2018-12-31T11:18:38.313Z,1.00
2018-12-31T11:21:07.793Z,1.00
2018-12-31T11:23:36.647Z,1.00
2018-12-31T11:26:05.536Z,1.00
2018-12-31T11:28:39.609Z,1.00
2018-12-31T11:31:08.755Z,1.00
2018-12-31T11:33:37.596Z,1.00
2018-12-31T11:36:06.595Z,1.00
2018-12-31T11:38:35.444Z,1.00
2018-12-31T11:41:04.325Z,1.00
2018-12-31T11:43:33.260Z,1.00
2018-12-31T11:46:02.100Z,1.00
2018-12-31T11:48:30.936Z,1.00
2018-12-31T11:50:59.844Z,1.00
2018-12-31T11:53:28.676Z,1.00
2018-12-31T11:55:57.507Z,1.00
2018-12-31T11:58:26.649Z,1.00
2018-12-31T12:00:55.497Z,24.70
2018-12-31T12:03:24.347Z,1.00
2018-12-31T12:05:53.225Z,1.00
2018-12-31T12:08:22.056Z,1.00
2018-12-31T12:10:50.894Z,1.00
2018-12-31T12:13:19.771Z,1.00
2018-12-31T12:15:48.628Z,78.60
2018-12-31T12:18:17.473Z,55.50
2018-12-31T12:20:46.350Z,40.40
2018-12-31T12:23:15.191Z,43.80
2018-12-31T12:25:44.032Z,99.90
2018-12-31T12:28:13.033Z,99.90
2018-12-31T12:30:41.924Z,99.90
2018-12-31T12:33:10.766Z,75.50
2018-12-31T12:35:39.610Z,34.30
2018-12-31T12:38:08.503Z,58.70
2018-12-31T12:40:37.539Z,44.80
2018-12-31T12:43:06.385Z,53.60
2018-12-31T12:45:35.393Z,51.70
2018-12-31T12:48:04.211Z,99.90
2018-12-31T12:50:33.147Z,75.40
2018-12-31T12:53:02.243Z,99.90
2018-12-31T12:55:31.111Z,54.70
2018-12-31T12:57:59.952Z,49.60
2018-12-31T13:00:28.980Z,70.80
2018-12-31T13:02:57.864Z,99.90
2018-12-31T13:05:26.766Z,99.90
2018-12-31T13:07:55.670Z,99.20
2018-12-31T13:10:24.560Z,97.60
2018-12-31T13:12:53.665Z,90.30
2018-12-31T13:15:22.507Z,99.90
2018-12-31T13:17:51.411Z,99.90
2018-12-31T13:20:20.246Z,99.90
2018-12-31T13:22:49.083Z,99.90
2018-12-31T13:25:17.963Z,96.80
2018-12-31T13:27:46.803Z,45.10
2018-12-31T13:30:15.651Z,99.90
2018-12-31T13:32:44.528Z,99.90
2018-12-31T13:35:13.519Z,99.90
2018-12-31T13:37:42.425Z,99.90
2018-12-31T13:40:11.343Z,1.00
2018-12-31T13:42:40.468Z,1.00
2018-12-31T13:45:09.358Z,1.00
